sensor_id;sensor_type;location;lat;lon;timestamp;temperature;humidity
62998;DHT22;55949;52.590;7.330;2023-12-07T00:00:35;4.90;99.90
62998;DHT22;55949;52.590;7.330;2023-12-07T00:01:35;4.80;99.90
62998;DHT22;55949;52.590;7.330;2023-12-07T00:02:37;4.70;99.90
62998;DHT22;55949;52.590;7.330;2023-12-07T00:03:38;4.80;99.90
62998;DHT22;55949;52.590;7.330;2023-12-07T00:04:39;4.80;99.90
62998;DHT22;55949;52.590;7.330;2023-12-07T00:05:39;5.00;99.90
62998;DHT22;55949;52.590;7.330;2023-12-07T00:06:40;5.00;99.90
62998;DHT22;55949;52.590;7.330;2023-12-07T00:07:41;5.10;99.90
62998;DHT22;55949;52.590;7.330;2023-12-07T00:08:41;5.20;99.90
62998;DHT22;55949;52.590;7.330;2023-12-07T00:09:42;5.00;99.90
62998;DHT22;55949;52.590;7.330;2023-12-07T00:10:43;4.90;99.90
62998;DHT22;55949;52.590;7.330;2023-12-07T00:11:43;4.90;99.90
62998;DHT22;55949;52.590;7.330;2023-12-07T00:12:44;4.90;99.90
62998;DHT22;55949;52.590;7.330;2023-12-07T00:13:44;4.90;99.90
62998;DHT22;55949;52.590;7.330;2023-12-07T00:14:45;4.90;99.90
62998;DHT22;55949;52.590;7.330;2023-12-07T00:15:46;4.90;99.90
62998;DHT22;55949;52.590;7.330;2023-12-07T00:16:47;5.00;99.90
62998;DHT22;55949;52.590;7.330;2023-12-07T00:17:48;4.90;99.90
62998;DHT22;55949;52.590;7.330;2023-12-07T00:18:48;5.20;99.90
62998;DHT22;55949;52.590;7.330;2023-12-07T00:19:50;5.00;99.90
62998;DHT22;55949;52.590;7.330;2023-12-07T00:20:51;5.00;99.90
62998;DHT22;55949;52.590;7.330;2023-12-07T00:21:52;5.10;99.90
62998;DHT22;55949;52.590;7.330;2023-12-07T00:22:52;5.20;99.90
62998;DHT22;55949;52.590;7.330;2023-12-07T00:23:53;5.30;99.90
62998;DHT22;55949;52.590;7.330;2023-12-07T00:24:54;5.40;99.90
62998;DHT22;55949;52.590;7.330;2023-12-07T00:25:54;5.60;99.90
62998;DHT22;55949;52.590;7.330;2023-12-07T00:26:55;5.30;99.90
62998;DHT22;55949;52.590;7.330;2023-12-07T00:27:56;5.30;99.90
62998;DHT22;55949;52.590;7.330;2023-12-07T00:28:57;5.20;99.90
62998;DHT22;55949;52.590;7.330;2023-12-07T00:29:57;5.10;99.90
62998;DHT22;55949;52.590;7.330;2023-12-07T00:30:58;5.00;99.90
62998;DHT22;55949;52.590;7.330;2023-12-07T00:31:59;5.00;99.90
62998;DHT22;55949;52.590;7.330;2023-12-07T00:33:00;5.00;99.90
62998;DHT22;55949;52.590;7.330;2023-12-07T00:34:01;5.10;99.90
62998;DHT22;55949;52.590;7.330;2023-12-07T00:35:01;5.20;99.90
62998;DHT22;55949;52.590;7.330;2023-12-07T00:36:02;5.20;99.90
62998;DHT22;55949;52.590;7.330;2023-12-07T00:37:04;5.20;99.90
62998;DHT22;55949;52.590;7.330;2023-12-07T00:38:05;5.20;99.90
62998;DHT22;55949;52.590;7.330;2023-12-07T00:39:08;5.20;99.90
62998;DHT22;55949;52.590;7.330;2023-12-07T00:40:09;5.20;99.90
62998;DHT22;55949;52.590;7.330;2023-12-07T00:41:10;5.30;99.90
62998;DHT22;55949;52.590;7.330;2023-12-07T00:42:10;5.40;99.90
62998;DHT22;55949;52.590;7.330;2023-12-07T00:43:11;5.50;99.90
62998;DHT22;55949;52.590;7.330;2023-12-07T00:44:15;5.40;99.90
62998;DHT22;55949;52.590;7.330;2023-12-07T00:45:16;5.50;99.90
62998;DHT22;55949;52.590;7.330;2023-12-07T00:46:16;5.60;99.90
62998;DHT22;55949;52.590;7.330;2023-12-07T00:47:17;5.60;99.90
62998;DHT22;55949;52.590;7.330;2023-12-07T00:48:18;5.70;99.90
62998;DHT22;55949;52.590;7.330;2023-12-07T00:49:18;5.40;99.90
62998;DHT22;55949;52.590;7.330;2023-12-07T00:50:19;5.50;99.90
62998;DHT22;55949;52.590;7.330;2023-12-07T00:51:20;5.50;99.90
62998;DHT22;55949;52.590;7.330;2023-12-07T00:52:20;5.40;99.90
62998;DHT22;55949;52.590;7.330;2023-12-07T00:53:21;5.40;99.90
62998;DHT22;55949;52.590;7.330;2023-12-07T00:54:22;5.40;99.90
62998;DHT22;55949;52.590;7.330;2023-12-07T00:55:23;5.40;99.90
62998;DHT22;55949;52.590;7.330;2023-12-07T00:56:24;5.30;99.90
62998;DHT22;55949;52.590;7.330;2023-12-07T00:57:25;5.30;99.90
62998;DHT22;55949;52.590;7.330;2023-12-07T00:58:26;5.30;99.90
62998;DHT22;55949;52.590;7.330;2023-12-07T00:59:27;5.30;99.90
62998;DHT22;55949;52.590;7.330;2023-12-07T01:00:34;5.10;99.90
62998;DHT22;55949;52.590;7.330;2023-12-07T01:01:34;5.00;99.90
62998;DHT22;55949;52.590;7.330;2023-12-07T01:02:35;5.10;99.90
62998;DHT22;55949;52.590;7.330;2023-12-07T01:03:35;5.20;99.90
62998;DHT22;55949;52.590;7.330;2023-12-07T01:04:36;5.30;99.90
62998;DHT22;55949;52.590;7.330;2023-12-07T01:05:37;5.30;99.90
62998;DHT22;55949;52.590;7.330;2023-12-07T01:06:38;5.40;99.90
62998;DHT22;55949;52.590;7.330;2023-12-07T01:07:41;5.30;99.90
62998;DHT22;55949;52.590;7.330;2023-12-07T01:08:41;5.30;99.90
62998;DHT22;55949;52.590;7.330;2023-12-07T01:09:42;5.40;99.90
62998;DHT22;55949;52.590;7.330;2023-12-07T01:10:43;5.50;99.90
62998;DHT22;55949;52.590;7.330;2023-12-07T01:11:44;5.50;99.90
62998;DHT22;55949;52.590;7.330;2023-12-07T01:12:44;5.40;99.90
62998;DHT22;55949;52.590;7.330;2023-12-07T01:13:45;5.60;99.90
62998;DHT22;55949;52.590;7.330;2023-12-07T01:14:45;5.60;99.90
62998;DHT22;55949;52.590;7.330;2023-12-07T01:15:46;5.60;99.90
62998;DHT22;55949;52.590;7.330;2023-12-07T01:16:47;5.50;99.90
62998;DHT22;55949;52.590;7.330;2023-12-07T01:17:47;5.70;99.90
62998;DHT22;55949;52.590;7.330;2023-12-07T01:18:48;5.70;99.90
62998;DHT22;55949;52.590;7.330;2023-12-07T01:19:49;5.70;99.90
62998;DHT22;55949;52.590;7.330;2023-12-07T01:20:49;5.80;99.90
62998;DHT22;55949;52.590;7.330;2023-12-07T01:21:51;5.90;99.90
62998;DHT22;55949;52.590;7.330;2023-12-07T01:22:51;5.90;99.90
62998;DHT22;55949;52.590;7.330;2023-12-07T01:23:52;5.80;99.90
62998;DHT22;55949;52.590;7.330;2023-12-07T01:24:53;5.90;99.90
62998;DHT22;55949;52.590;7.330;2023-12-07T01:25:53;5.90;99.90
62998;DHT22;55949;52.590;7.330;2023-12-07T01:26:54;5.80;99.90
62998;DHT22;55949;52.590;7.330;2023-12-07T01:27:55;5.80;99.90
62998;DHT22;55949;52.590;7.330;2023-12-07T01:28:56;5.60;99.90
62998;DHT22;55949;52.590;7.330;2023-12-07T01:29:56;5.60;99.90
62998;DHT22;55949;52.590;7.330;2023-12-07T01:30:57;5.60;99.90
62998;DHT22;55949;52.590;7.330;2023-12-07T01:31:58;5.50;99.90
62998;DHT22;55949;52.590;7.330;2023-12-07T01:32:58;5.40;99.90
62998;DHT22;55949;52.590;7.330;2023-12-07T01:34:00;5.40;99.90
62998;DHT22;55949;52.590;7.330;2023-12-07T01:35:00;5.30;99.90
62998;DHT22;55949;52.590;7.330;2023-12-07T01:36:01;5.50;99.90
62998;DHT22;55949;52.590;7.330;2023-12-07T01:37:02;5.50;99.90
62998;DHT22;55949;52.590;7.330;2023-12-07T01:38:02;5.60;99.90
62998;DHT22;55949;52.590;7.330;2023-12-07T01:39:03;5.40;99.90
62998;DHT22;55949;52.590;7.330;2023-12-07T01:40:05;5.20;99.90
62998;DHT22;55949;52.590;7.330;2023-12-07T01:41:10;5.40;99.90
62998;DHT22;55949;52.590;7.330;2023-12-07T01:42:10;5.30;99.90
62998;DHT22;55949;52.590;7.330;2023-12-07T01:43:12;5.20;99.90
62998;DHT22;55949;52.590;7.330;2023-12-07T01:44:13;5.30;99.90
62998;DHT22;55949;52.590;7.330;2023-12-07T01:45:14;5.40;99.90
62998;DHT22;55949;52.590;7.330;2023-12-07T01:46:15;5.40;99.90
62998;DHT22;55949;52.590;7.330;2023-12-07T01:47:17;5.40;99.90
62998;DHT22;55949;52.590;7.330;2023-12-07T01:48:17;5.50;99.90
62998;DHT22;55949;52.590;7.330;2023-12-07T01:49:18;5.60;99.90
62998;DHT22;55949;52.590;7.330;2023-12-07T01:50:19;5.60;99.90
62998;DHT22;55949;52.590;7.330;2023-12-07T01:51:24;5.50;99.90
62998;DHT22;55949;52.590;7.330;2023-12-07T01:52:26;5.60;99.90
62998;DHT22;55949;52.590;7.330;2023-12-07T01:53:28;5.60;99.90
62998;DHT22;55949;52.590;7.330;2023-12-07T01:54:29;5.60;99.90
62998;DHT22;55949;52.590;7.330;2023-12-07T01:55:31;5.70;99.90
62998;DHT22;55949;52.590;7.330;2023-12-07T01:56:32;5.70;99.90
62998;DHT22;55949;52.590;7.330;2023-12-07T01:57:33;5.70;99.90
62998;DHT22;55949;52.590;7.330;2023-12-07T01:58:34;5.80;99.90
62998;DHT22;55949;52.590;7.330;2023-12-07T01:59:35;5.60;99.90
62998;DHT22;55949;52.590;7.330;2023-12-07T02:00:36;5.50;99.90
62998;DHT22;55949;52.590;7.330;2023-12-07T02:01:37;5.40;99.90
62998;DHT22;55949;52.590;7.330;2023-12-07T02:02:37;5.60;99.90
62998;DHT22;55949;52.590;7.330;2023-12-07T02:03:39;5.70;99.90
62998;DHT22;55949;52.590;7.330;2023-12-07T02:04:40;5.70;99.90
62998;DHT22;55949;52.590;7.330;2023-12-07T02:05:43;5.80;99.90
62998;DHT22;55949;52.590;7.330;2023-12-07T02:06:46;5.80;99.90
62998;DHT22;55949;52.590;7.330;2023-12-07T02:07:47;5.80;99.90
62998;DHT22;55949;52.590;7.330;2023-12-07T02:08:48;5.70;99.90
62998;DHT22;55949;52.590;7.330;2023-12-07T02:09:49;5.50;99.90
62998;DHT22;55949;52.590;7.330;2023-12-07T02:10:50;5.40;99.90
62998;DHT22;55949;52.590;7.330;2023-12-07T02:11:53;5.40;99.90
62998;DHT22;55949;52.590;7.330;2023-12-07T02:12:54;5.30;99.90
62998;DHT22;55949;52.590;7.330;2023-12-07T02:13:55;5.50;99.90
62998;DHT22;55949;52.590;7.330;2023-12-07T02:14:59;5.60;99.90
62998;DHT22;55949;52.590;7.330;2023-12-07T02:16:01;5.70;99.90
62998;DHT22;55949;52.590;7.330;2023-12-07T02:18:40;5.90;99.90
62998;DHT22;55949;52.590;7.330;2023-12-07T02:19:59;5.70;99.90
62998;DHT22;55949;52.590;7.330;2023-12-07T02:21:04;5.70;99.90
62998;DHT22;55949;52.590;7.330;2023-12-07T02:22:16;5.70;99.90
62998;DHT22;55949;52.590;7.330;2023-12-07T02:23:18;5.50;99.90
62998;DHT22;55949;52.590;7.330;2023-12-07T02:24:21;5.50;99.90
62998;DHT22;55949;52.590;7.330;2023-12-07T02:25:36;5.50;99.90
62998;DHT22;55949;52.590;7.330;2023-12-07T02:26:40;5.40;99.90
62998;DHT22;55949;52.590;7.330;2023-12-07T02:27:42;5.30;99.90
62998;DHT22;55949;52.590;7.330;2023-12-07T02:28:43;5.30;99.90
62998;DHT22;55949;52.590;7.330;2023-12-07T02:29:44;5.40;99.90
62998;DHT22;55949;52.590;7.330;2023-12-07T02:30:44;5.20;99.90
62998;DHT22;55949;52.590;7.330;2023-12-07T02:31:45;5.20;99.90
62998;DHT22;55949;52.590;7.330;2023-12-07T02:32:49;5.20;99.90
62998;DHT22;55949;52.590;7.330;2023-12-07T02:33:49;5.30;99.90
62998;DHT22;55949;52.590;7.330;2023-12-07T02:34:50;5.30;99.90
62998;DHT22;55949;52.590;7.330;2023-12-07T02:35:51;5.30;99.90
62998;DHT22;55949;52.590;7.330;2023-12-07T02:36:53;5.40;99.90
62998;DHT22;55949;52.590;7.330;2023-12-07T02:37:57;5.40;99.90
62998;DHT22;55949;52.590;7.330;2023-12-07T02:38:59;5.60;99.90
62998;DHT22;55949;52.590;7.330;2023-12-07T02:40:02;5.40;99.90
62998;DHT22;55949;52.590;7.330;2023-12-07T02:41:04;5.40;99.90
62998;DHT22;55949;52.590;7.330;2023-12-07T02:42:07;5.30;99.90
62998;DHT22;55949;52.590;7.330;2023-12-07T02:43:09;5.30;99.90
62998;DHT22;55949;52.590;7.330;2023-12-07T02:44:10;5.20;99.90
62998;DHT22;55949;52.590;7.330;2023-12-07T02:45:11;5.20;99.90
62998;DHT22;55949;52.590;7.330;2023-12-07T02:46:14;5.30;99.90
62998;DHT22;55949;52.590;7.330;2023-12-07T02:47:15;5.30;99.90
62998;DHT22;55949;52.590;7.330;2023-12-07T02:48:16;5.30;99.90
62998;DHT22;55949;52.590;7.330;2023-12-07T02:49:17;5.40;99.90
62998;DHT22;55949;52.590;7.330;2023-12-07T02:50:18;5.40;99.90
62998;DHT22;55949;52.590;7.330;2023-12-07T02:51:19;5.30;99.90
62998;DHT22;55949;52.590;7.330;2023-12-07T02:52:20;5.40;99.90
62998;DHT22;55949;52.590;7.330;2023-12-07T02:53:21;5.40;99.90
62998;DHT22;55949;52.590;7.330;2023-12-07T02:54:21;5.40;99.90
62998;DHT22;55949;52.590;7.330;2023-12-07T02:55:22;5.40;99.90
62998;DHT22;55949;52.590;7.330;2023-12-07T02:56:23;5.40;99.90
62998;DHT22;55949;52.590;7.330;2023-12-07T02:57:24;5.50;99.90
62998;DHT22;55949;52.590;7.330;2023-12-07T02:58:24;5.40;99.90
62998;DHT22;55949;52.590;7.330;2023-12-07T02:59:25;5.40;99.90
62998;DHT22;55949;52.590;7.330;2023-12-07T03:00:26;5.60;99.90
62998;DHT22;55949;52.590;7.330;2023-12-07T03:01:27;5.50;99.90
62998;DHT22;55949;52.590;7.330;2023-12-07T03:02:27;5.40;99.90
62998;DHT22;55949;52.590;7.330;2023-12-07T03:03:28;5.30;99.90
62998;DHT22;55949;52.590;7.330;2023-12-07T03:04:29;5.30;99.90
62998;DHT22;55949;52.590;7.330;2023-12-07T03:05:29;5.40;99.90
62998;DHT22;55949;52.590;7.330;2023-12-07T03:06:30;5.40;99.90
62998;DHT22;55949;52.590;7.330;2023-12-07T03:07:31;5.50;99.90
62998;DHT22;55949;52.590;7.330;2023-12-07T03:08:32;5.50;99.90
62998;DHT22;55949;52.590;7.330;2023-12-07T03:09:32;5.60;99.90
62998;DHT22;55949;52.590;7.330;2023-12-07T03:10:33;5.70;99.90
62998;DHT22;55949;52.590;7.330;2023-12-07T03:11:34;5.70;99.90
62998;DHT22;55949;52.590;7.330;2023-12-07T03:12:34;5.70;99.90
62998;DHT22;55949;52.590;7.330;2023-12-07T03:13:35;5.80;99.90
62998;DHT22;55949;52.590;7.330;2023-12-07T03:14:36;6.10;99.90
62998;DHT22;55949;52.590;7.330;2023-12-07T03:15:36;6.10;99.90
62998;DHT22;55949;52.590;7.330;2023-12-07T03:16:38;6.20;99.90
62998;DHT22;55949;52.590;7.330;2023-12-07T03:17:39;6.20;99.90
62998;DHT22;55949;52.590;7.330;2023-12-07T03:18:40;6.30;99.90
62998;DHT22;55949;52.590;7.330;2023-12-07T03:19:41;6.30;99.90
62998;DHT22;55949;52.590;7.330;2023-12-07T03:20:42;6.40;99.90
62998;DHT22;55949;52.590;7.330;2023-12-07T03:21:42;6.40;99.90
62998;DHT22;55949;52.590;7.330;2023-12-07T03:22:43;6.50;99.90
62998;DHT22;55949;52.590;7.330;2023-12-07T03:23:44;6.40;99.90
62998;DHT22;55949;52.590;7.330;2023-12-07T03:24:46;6.30;99.90
62998;DHT22;55949;52.590;7.330;2023-12-07T03:25:48;6.30;99.90
62998;DHT22;55949;52.590;7.330;2023-12-07T03:26:48;6.40;99.90
62998;DHT22;55949;52.590;7.330;2023-12-07T03:27:49;6.40;99.90
62998;DHT22;55949;52.590;7.330;2023-12-07T03:28:50;6.40;99.90
62998;DHT22;55949;52.590;7.330;2023-12-07T03:29:50;6.30;99.90
62998;DHT22;55949;52.590;7.330;2023-12-07T03:30:51;6.10;99.90
62998;DHT22;55949;52.590;7.330;2023-12-07T03:31:52;6.00;99.90
62998;DHT22;55949;52.590;7.330;2023-12-07T03:32:53;5.80;99.90
62998;DHT22;55949;52.590;7.330;2023-12-07T03:33:55;5.80;99.90
62998;DHT22;55949;52.590;7.330;2023-12-07T03:34:56;5.90;99.90
62998;DHT22;55949;52.590;7.330;2023-12-07T03:35:56;5.80;99.90
62998;DHT22;55949;52.590;7.330;2023-12-07T03:36:57;6.20;99.90
62998;DHT22;55949;52.590;7.330;2023-12-07T03:37:58;6.20;99.90
62998;DHT22;55949;52.590;7.330;2023-12-07T03:38:59;6.20;99.90
62998;DHT22;55949;52.590;7.330;2023-12-07T03:39:59;6.20;99.90
62998;DHT22;55949;52.590;7.330;2023-12-07T03:41:00;6.10;99.90
62998;DHT22;55949;52.590;7.330;2023-12-07T03:42:01;6.00;99.90
62998;DHT22;55949;52.590;7.330;2023-12-07T03:43:01;6.10;99.90
62998;DHT22;55949;52.590;7.330;2023-12-07T03:44:04;6.10;99.90
62998;DHT22;55949;52.590;7.330;2023-12-07T03:45:05;6.20;99.90
62998;DHT22;55949;52.590;7.330;2023-12-07T03:46:07;6.20;99.90
62998;DHT22;55949;52.590;7.330;2023-12-07T03:47:08;6.30;99.90
62998;DHT22;55949;52.590;7.330;2023-12-07T03:48:09;6.40;99.90
62998;DHT22;55949;52.590;7.330;2023-12-07T03:49:10;6.40;99.90
62998;DHT22;55949;52.590;7.330;2023-12-07T03:50:11;6.40;99.90
62998;DHT22;55949;52.590;7.330;2023-12-07T03:51:15;6.40;99.90
62998;DHT22;55949;52.590;7.330;2023-12-07T03:52:16;6.50;99.90
62998;DHT22;55949;52.590;7.330;2023-12-07T03:53:17;6.60;99.90
62998;DHT22;55949;52.590;7.330;2023-12-07T03:54:18;6.70;99.90
62998;DHT22;55949;52.590;7.330;2023-12-07T03:55:19;6.80;99.90
62998;DHT22;55949;52.590;7.330;2023-12-07T03:56:26;6.80;99.90
62998;DHT22;55949;52.590;7.330;2023-12-07T03:57:27;6.70;99.90
62998;DHT22;55949;52.590;7.330;2023-12-07T03:58:28;6.60;99.90
62998;DHT22;55949;52.590;7.330;2023-12-07T03:59:29;6.60;99.90
62998;DHT22;55949;52.590;7.330;2023-12-07T04:00:31;6.60;99.90
62998;DHT22;55949;52.590;7.330;2023-12-07T04:01:32;6.40;99.90
62998;DHT22;55949;52.590;7.330;2023-12-07T04:02:32;6.50;99.90
62998;DHT22;55949;52.590;7.330;2023-12-07T04:03:33;6.60;99.90
62998;DHT22;55949;52.590;7.330;2023-12-07T04:04:35;6.50;99.90
62998;DHT22;55949;52.590;7.330;2023-12-07T04:05:35;6.40;99.90
62998;DHT22;55949;52.590;7.330;2023-12-07T04:06:36;6.30;99.90
62998;DHT22;55949;52.590;7.330;2023-12-07T04:07:37;6.20;99.90
62998;DHT22;55949;52.590;7.330;2023-12-07T04:08:37;6.40;99.90
62998;DHT22;55949;52.590;7.330;2023-12-07T04:09:38;6.50;99.90
62998;DHT22;55949;52.590;7.330;2023-12-07T04:10:39;6.60;99.90
62998;DHT22;55949;52.590;7.330;2023-12-07T04:11:40;6.50;99.90
62998;DHT22;55949;52.590;7.330;2023-12-07T04:12:41;6.40;99.90
62998;DHT22;55949;52.590;7.330;2023-12-07T04:13:43;6.50;99.90
62998;DHT22;55949;52.590;7.330;2023-12-07T04:14:43;6.50;99.90
62998;DHT22;55949;52.590;7.330;2023-12-07T04:15:44;6.50;99.90
62998;DHT22;55949;52.590;7.330;2023-12-07T04:16:45;6.50;99.90
62998;DHT22;55949;52.590;7.330;2023-12-07T04:17:46;6.40;99.90
62998;DHT22;55949;52.590;7.330;2023-12-07T04:18:47;6.40;99.90
62998;DHT22;55949;52.590;7.330;2023-12-07T04:19:48;6.30;99.90
62998;DHT22;55949;52.590;7.330;2023-12-07T04:20:48;6.40;99.90
62998;DHT22;55949;52.590;7.330;2023-12-07T04:21:49;6.30;99.90
62998;DHT22;55949;52.590;7.330;2023-12-07T04:22:50;6.40;99.90
62998;DHT22;55949;52.590;7.330;2023-12-07T04:23:51;6.40;99.90
62998;DHT22;55949;52.590;7.330;2023-12-07T04:24:52;6.30;99.90
62998;DHT22;55949;52.590;7.330;2023-12-07T04:25:52;6.30;99.90
62998;DHT22;55949;52.590;7.330;2023-12-07T04:26:55;6.30;99.90
62998;DHT22;55949;52.590;7.330;2023-12-07T04:27:55;6.20;99.90
62998;DHT22;55949;52.590;7.330;2023-12-07T04:28:56;6.30;99.90
62998;DHT22;55949;52.590;7.330;2023-12-07T04:29:57;6.40;99.90
62998;DHT22;55949;52.590;7.330;2023-12-07T04:30:58;6.30;99.90
62998;DHT22;55949;52.590;7.330;2023-12-07T04:31:59;6.30;99.90
62998;DHT22;55949;52.590;7.330;2023-12-07T04:32:59;6.20;99.90
62998;DHT22;55949;52.590;7.330;2023-12-07T04:34:00;6.10;99.90
62998;DHT22;55949;52.590;7.330;2023-12-07T04:35:02;6.10;99.90
62998;DHT22;55949;52.590;7.330;2023-12-07T04:36:03;6.00;99.90
62998;DHT22;55949;52.590;7.330;2023-12-07T04:37:05;6.00;99.90
62998;DHT22;55949;52.590;7.330;2023-12-07T04:38:05;5.80;99.90
62998;DHT22;55949;52.590;7.330;2023-12-07T04:39:06;5.70;99.90
62998;DHT22;55949;52.590;7.330;2023-12-07T04:40:07;5.80;99.90
62998;DHT22;55949;52.590;7.330;2023-12-07T04:41:08;5.90;99.90
62998;DHT22;55949;52.590;7.330;2023-12-07T04:42:09;5.70;99.90
62998;DHT22;55949;52.590;7.330;2023-12-07T04:43:09;5.80;99.90
62998;DHT22;55949;52.590;7.330;2023-12-07T04:44:10;6.00;99.90
62998;DHT22;55949;52.590;7.330;2023-12-07T04:45:11;6.00;99.90
62998;DHT22;55949;52.590;7.330;2023-12-07T04:46:11;6.00;99.90
62998;DHT22;55949;52.590;7.330;2023-12-07T04:47:12;6.10;99.90
62998;DHT22;55949;52.590;7.330;2023-12-07T04:48:13;6.00;99.90
62998;DHT22;55949;52.590;7.330;2023-12-07T04:49:13;6.10;99.90
62998;DHT22;55949;52.590;7.330;2023-12-07T04:50:14;6.20;99.90
62998;DHT22;55949;52.590;7.330;2023-12-07T04:51:15;5.90;99.90
62998;DHT22;55949;52.590;7.330;2023-12-07T04:52:16;5.90;99.90
62998;DHT22;55949;52.590;7.330;2023-12-07T04:53:16;5.90;99.90
62998;DHT22;55949;52.590;7.330;2023-12-07T04:54:17;5.90;99.90
62998;DHT22;55949;52.590;7.330;2023-12-07T04:55:18;5.70;99.90
62998;DHT22;55949;52.590;7.330;2023-12-07T04:56:18;5.50;99.90
62998;DHT22;55949;52.590;7.330;2023-12-07T04:57:19;5.70;99.90
62998;DHT22;55949;52.590;7.330;2023-12-07T04:58:20;5.80;99.90
62998;DHT22;55949;52.590;7.330;2023-12-07T04:59:20;6.00;99.90
62998;DHT22;55949;52.590;7.330;2023-12-07T05:00:21;5.80;99.90
62998;DHT22;55949;52.590;7.330;2023-12-07T05:01:22;6.30;99.90
62998;DHT22;55949;52.590;7.330;2023-12-07T05:02:23;6.10;99.90
62998;DHT22;55949;52.590;7.330;2023-12-07T05:03:24;6.30;99.90
62998;DHT22;55949;52.590;7.330;2023-12-07T05:04:25;6.20;99.90
62998;DHT22;55949;52.590;7.330;2023-12-07T05:05:25;6.30;99.90
62998;DHT22;55949;52.590;7.330;2023-12-07T05:06:26;6.20;99.90
62998;DHT22;55949;52.590;7.330;2023-12-07T05:07:27;6.00;99.90
62998;DHT22;55949;52.590;7.330;2023-12-07T05:08:27;6.00;99.90
62998;DHT22;55949;52.590;7.330;2023-12-07T05:09:28;5.90;99.90
62998;DHT22;55949;52.590;7.330;2023-12-07T05:10:31;6.00;99.90
62998;DHT22;55949;52.590;7.330;2023-12-07T05:11:32;6.00;99.90
62998;DHT22;55949;52.590;7.330;2023-12-07T05:12:32;5.90;99.90
62998;DHT22;55949;52.590;7.330;2023-12-07T05:13:33;5.90;99.90
62998;DHT22;55949;52.590;7.330;2023-12-07T05:14:34;6.00;99.90
62998;DHT22;55949;52.590;7.330;2023-12-07T05:15:37;6.00;99.90
62998;DHT22;55949;52.590;7.330;2023-12-07T05:16:38;6.10;99.90
62998;DHT22;55949;52.590;7.330;2023-12-07T05:17:39;6.10;99.90
62998;DHT22;55949;52.590;7.330;2023-12-07T05:18:40;6.00;99.90
62998;DHT22;55949;52.590;7.330;2023-12-07T05:19:40;5.90;99.90
62998;DHT22;55949;52.590;7.330;2023-12-07T05:20:41;5.90;99.90
62998;DHT22;55949;52.590;7.330;2023-12-07T05:21:43;6.00;99.90
62998;DHT22;55949;52.590;7.330;2023-12-07T05:22:44;6.00;99.90
62998;DHT22;55949;52.590;7.330;2023-12-07T05:23:44;6.10;99.90
62998;DHT22;55949;52.590;7.330;2023-12-07T05:24:45;5.80;99.90
62998;DHT22;55949;52.590;7.330;2023-12-07T05:25:46;5.80;99.90
62998;DHT22;55949;52.590;7.330;2023-12-07T05:26:47;5.60;99.90
62998;DHT22;55949;52.590;7.330;2023-12-07T05:27:48;5.60;99.90
62998;DHT22;55949;52.590;7.330;2023-12-07T05:28:49;5.70;99.90
62998;DHT22;55949;52.590;7.330;2023-12-07T05:29:50;5.60;99.90
62998;DHT22;55949;52.590;7.330;2023-12-07T05:30:51;5.50;99.90
62998;DHT22;55949;52.590;7.330;2023-12-07T05:31:52;5.60;99.90
62998;DHT22;55949;52.590;7.330;2023-12-07T05:32:53;5.70;99.90
62998;DHT22;55949;52.590;7.330;2023-12-07T05:33:54;5.80;99.90
62998;DHT22;55949;52.590;7.330;2023-12-07T05:34:55;6.00;99.90
62998;DHT22;55949;52.590;7.330;2023-12-07T05:35:56;6.00;99.90
62998;DHT22;55949;52.590;7.330;2023-12-07T05:36:56;5.90;99.90
62998;DHT22;55949;52.590;7.330;2023-12-07T05:37:57;6.00;99.90
62998;DHT22;55949;52.590;7.330;2023-12-07T05:38:58;6.00;99.90
62998;DHT22;55949;52.590;7.330;2023-12-07T05:39:59;6.10;99.90
62998;DHT22;55949;52.590;7.330;2023-12-07T05:41:01;5.70;99.90
62998;DHT22;55949;52.590;7.330;2023-12-07T05:42:02;5.70;99.90
62998;DHT22;55949;52.590;7.330;2023-12-07T05:43:04;5.70;99.90
62998;DHT22;55949;52.590;7.330;2023-12-07T05:44:05;5.80;99.90
62998;DHT22;55949;52.590;7.330;2023-12-07T05:45:06;6.00;99.90
62998;DHT22;55949;52.590;7.330;2023-12-07T05:46:07;6.00;99.90
62998;DHT22;55949;52.590;7.330;2023-12-07T05:47:08;6.00;99.90
62998;DHT22;55949;52.590;7.330;2023-12-07T05:48:10;6.00;99.90
62998;DHT22;55949;52.590;7.330;2023-12-07T05:49:11;5.90;99.90
62998;DHT22;55949;52.590;7.330;2023-12-07T05:50:12;5.80;99.90
62998;DHT22;55949;52.590;7.330;2023-12-07T05:51:15;5.80;99.90
62998;DHT22;55949;52.590;7.330;2023-12-07T05:52:16;6.00;99.90
62998;DHT22;55949;52.590;7.330;2023-12-07T05:53:17;5.80;99.90
62998;DHT22;55949;52.590;7.330;2023-12-07T05:54:20;5.50;99.90
62998;DHT22;55949;52.590;7.330;2023-12-07T05:55:22;5.40;99.90
62998;DHT22;55949;52.590;7.330;2023-12-07T05:56:23;5.30;99.90
62998;DHT22;55949;52.590;7.330;2023-12-07T05:57:24;5.30;99.90
62998;DHT22;55949;52.590;7.330;2023-12-07T05:58:25;5.40;99.90
62998;DHT22;55949;52.590;7.330;2023-12-07T05:59:26;5.40;99.90
62998;DHT22;55949;52.590;7.330;2023-12-07T06:00:26;5.30;99.90
62998;DHT22;55949;52.590;7.330;2023-12-07T06:01:28;5.30;99.90
62998;DHT22;55949;52.590;7.330;2023-12-07T06:02:28;5.20;99.90
62998;DHT22;55949;52.590;7.330;2023-12-07T06:03:30;5.00;99.90
62998;DHT22;55949;52.590;7.330;2023-12-07T06:04:30;4.90;99.90
62998;DHT22;55949;52.590;7.330;2023-12-07T06:05:31;5.00;99.90
62998;DHT22;55949;52.590;7.330;2023-12-07T06:06:32;4.90;99.90
62998;DHT22;55949;52.590;7.330;2023-12-07T06:07:32;4.90;99.90
62998;DHT22;55949;52.590;7.330;2023-12-07T06:08:34;4.90;99.90
62998;DHT22;55949;52.590;7.330;2023-12-07T06:09:35;5.10;99.90
62998;DHT22;55949;52.590;7.330;2023-12-07T06:10:35;5.20;99.90
62998;DHT22;55949;52.590;7.330;2023-12-07T06:11:36;5.50;99.90
62998;DHT22;55949;52.590;7.330;2023-12-07T06:12:37;5.50;99.90
62998;DHT22;55949;52.590;7.330;2023-12-07T06:13:38;5.50;99.90
62998;DHT22;55949;52.590;7.330;2023-12-07T06:14:39;5.40;99.90
62998;DHT22;55949;52.590;7.330;2023-12-07T06:15:40;5.40;99.90
62998;DHT22;55949;52.590;7.330;2023-12-07T06:16:41;5.40;99.90
62998;DHT22;55949;52.590;7.330;2023-12-07T06:17:41;5.50;99.90
62998;DHT22;55949;52.590;7.330;2023-12-07T06:18:42;5.50;99.90
62998;DHT22;55949;52.590;7.330;2023-12-07T06:19:43;5.30;99.90
62998;DHT22;55949;52.590;7.330;2023-12-07T06:20:43;5.50;99.90
62998;DHT22;55949;52.590;7.330;2023-12-07T06:21:44;5.20;99.90
62998;DHT22;55949;52.590;7.330;2023-12-07T06:22:45;5.40;99.90
62998;DHT22;55949;52.590;7.330;2023-12-07T06:23:45;5.40;99.90
62998;DHT22;55949;52.590;7.330;2023-12-07T06:24:47;5.50;99.90
62998;DHT22;55949;52.590;7.330;2023-12-07T06:25:48;5.70;99.90
62998;DHT22;55949;52.590;7.330;2023-12-07T06:26:50;5.60;99.90
62998;DHT22;55949;52.590;7.330;2023-12-07T06:27:52;5.80;99.90
62998;DHT22;55949;52.590;7.330;2023-12-07T06:28:53;5.80;99.90
62998;DHT22;55949;52.590;7.330;2023-12-07T06:29:54;6.00;99.90
62998;DHT22;55949;52.590;7.330;2023-12-07T06:30:54;5.70;99.90
62998;DHT22;55949;52.590;7.330;2023-12-07T06:31:57;5.70;99.90
62998;DHT22;55949;52.590;7.330;2023-12-07T06:32:58;5.80;99.90
62998;DHT22;55949;52.590;7.330;2023-12-07T06:33:59;5.80;99.90